Time;durP1;ratioP1;P1;durP2;ratioP2;P2;SDS_P1;SDS_P2;PMS_P1;PMS_P2;Temp;Humidity;BMP_temperature;BMP_pressure;BME280_temperature;BME280_humidity;BME280_pressure;Samples;Min_cycle;Max_cycle;Signal;HPM_P1;HPM_P2
2022/10/17 00:01:51;;;;;;;10.50;5.22;;;;;;;;;;4881508;29;20053;-63
2022/10/17 00:04:18;;;;;;;9.05;4.97;;;;;;;;;;4881606;29;20056;-63
2022/10/17 00:06:44;;;;;;;7.78;4.78;;;;;;;;;;4882923;29;20044;-63
2022/10/17 00:09:10;;;;;;;9.98;3.92;;;;;;;;;;4882549;29;20089;-63
2022/10/17 00:11:37;;;;;;;16.65;4.53;;;;;;;;;;4882150;29;20041;-64
2022/10/17 00:14:03;;;;;;;10.73;4.28;;;;;;;;;;4881649;29;20055;-63
2022/10/17 00:16:32;;;;;;;6.72;4.13;;;;;;;;;;4882494;29;20053;-63
2022/10/17 00:18:59;;;;;;;8.38;4.30;;;;;;;;;;4882567;29;20100;-63
2022/10/17 00:21:25;;;;;;;9.07;4.68;;;;;;;;;;4882500;29;20049;-63
2022/10/17 00:23:52;;;;;;;7.72;4.82;;;;;;;;;;4883240;29;20041;-63
2022/10/17 00:26:19;;;;;;;13.27;6.00;;;;;;;;;;4885362;29;20048;-63
2022/10/17 00:28:49;;;;;;;8.30;4.30;;;;;;;;;;4885254;29;20048;-62
2022/10/17 00:31:17;;;;;;;11.27;4.70;;;;;;;;;;4885055;29;20048;-63
2022/10/17 00:33:43;;;;;;;7.03;4.18;;;;;;;;;;4899396;29;20067;-63
2022/10/17 00:36:15;;;;;;;9.38;4.70;;;;;;;;;;4899749;29;20510;-62
2022/10/17 00:38:42;;;;;;;9.60;4.00;;;;;;;;;;4884786;29;20443;-62
2022/10/17 00:41:09;;;;;;;8.85;4.75;;;;;;;;;;4883160;29;20096;-62
2022/10/17 00:43:48;;;;;;;7.97;4.68;;;;;;;;;;4897229;29;20078;-62
2022/10/17 00:46:14;;;;;;;13.10;5.35;;;;;;;;;;4883595;29;20044;-62
2022/10/17 00:48:41;;;;;;;14.18;5.32;;;;;;;;;;4881553;29;20391;-62
2022/10/17 00:51:08;;;;;;;8.88;5.13;;;;;;;;;;4886123;29;20053;-62
2022/10/17 00:53:35;;;;;;;10.63;5.28;;;;;;;;;;4885192;29;20058;-62
2022/10/17 00:56:02;;;;;;;8.23;5.93;;;;;;;;;;4886113;29;20041;-62
2022/10/17 00:58:28;;;;;;;9.80;5.38;;;;;;;;;;4885984;29;20040;-63
2022/10/17 01:00:55;;;;;;;8.80;4.97;;;;;;;;;;4886876;29;20049;-64
2022/10/17 01:03:21;;;;;;;8.18;5.10;;;;;;;;;;4883671;29;20044;-64
2022/10/17 01:05:48;;;;;;;9.82;5.25;;;;;;;;;;4884846;29;20060;-63
2022/10/17 01:08:16;;;;;;;10.80;4.88;;;;;;;;;;4899741;29;20045;-63
2022/10/17 01:11:01;;;;;;;6.30;4.45;;;;;;;;;;4885650;29;20041;-63
2022/10/17 01:13:36;;;;;;;13.90;5.13;;;;;;;;;;4895240;29;20056;-64
2022/10/17 01:16:29;;;;;;;9.38;5.03;;;;;;;;;;4878258;29;20045;-64
2022/10/17 01:19:23;;;;;;;12.80;4.35;;;;;;;;;;4871340;29;20067;-64
2022/10/17 01:21:59;;;;;;;7.68;4.82;;;;;;;;;;4894640;29;20076;-64
2022/10/17 01:24:25;;;;;;;7.72;4.80;;;;;;;;;;4893789;29;20041;-63
2022/10/17 01:27:10;;;;;;;11.73;4.93;;;;;;;;;;4879193;29;20045;-64
2022/10/17 01:29:40;;;;;;;10.35;4.85;;;;;;;;;;4893590;29;20078;-64
2022/10/17 01:32:09;;;;;;;8.60;4.90;;;;;;;;;;4892507;29;20134;-65
2022/10/17 01:34:42;;;;;;;9.32;4.88;;;;;;;;;;4877744;29;20053;-63
2022/10/17 01:37:09;;;;;;;;;;;;;;;;;;4893908;29;20073;-63
2022/10/17 01:39:39;;;;;;;12.68;4.63;;;;;;;;;;4893441;29;19924;-63
2022/10/17 01:42:20;;;;;;;10.40;4.30;;;;;;;;;;4891993;29;20049;-64
2022/10/17 01:45:07;;;;;;;7.45;4.75;;;;;;;;;;4878893;29;20109;-64
2022/10/17 01:47:34;;;;;;;8.98;4.40;;;;;;;;;;4874803;29;20060;-64
2022/10/17 01:50:05;;;;;;;10.52;4.47;;;;;;;;;;4893084;29;20532;-64
2022/10/17 01:52:38;;;;;;;8.93;4.82;;;;;;;;;;4892503;29;20053;-64
2022/10/17 01:55:25;;;;;;;10.40;4.38;;;;;;;;;;4878680;29;20097;-64
2022/10/17 01:58:02;;;;;;;6.68;4.55;;;;;;;;;;4877165;29;20048;-64
2022/10/17 02:00:29;;;;;;;9.50;4.18;;;;;;;;;;4878538;29;20047;-63
2022/10/17 02:02:57;;;;;;;8.07;4.50;;;;;;;;;;4877787;29;20056;-63
2022/10/17 02:05:27;;;;;;;13.27;5.55;;;;;;;;;;4877211;29;20049;-62
2022/10/17 02:07:54;;;;;;;8.35;4.05;;;;;;;;;;4878490;29;20049;-64
2022/10/17 02:10:25;;;;;;;14.30;4.43;;;;;;;;;;4908445;29;20494;-64
2022/10/17 02:13:04;;;;;;;9.90;4.10;;;;;;;;;;4891989;29;20064;-64
2022/10/17 02:15:38;;;;;;;13.60;4.22;;;;;;;;;;4878421;29;20085;-63
2022/10/17 02:18:15;;;;;;;6.53;4.07;;;;;;;;;;4892750;29;20049;-63
2022/10/17 02:20:47;;;;;;;5.18;4.03;;;;;;;;;;4892678;29;20049;-64
2022/10/17 02:23:20;;;;;;;13.02;4.47;;;;;;;;;;4877674;29;20048;-64
2022/10/17 02:26:16;;;;;;;10.63;5.22;;;;;;;;;;4892405;29;20049;-65
2022/10/17 02:28:43;;;;;;;6.68;4.55;;;;;;;;;;4868934;29;20089;-63
2022/10/17 02:31:14;;;;;;;12.55;4.78;;;;;;;;;;4878310;29;20041;-63
2022/10/17 02:33:45;;;;;;;9.10;4.05;;;;;;;;;;4892127;29;20116;-63
2022/10/17 02:36:18;;;;;;;7.72;4.43;;;;;;;;;;4892627;29;20052;-65
2022/10/17 02:38:45;;;;;;;6.03;4.10;;;;;;;;;;4892868;29;20045;-64
2022/10/17 02:41:14;;;;;;;8.30;4.15;;;;;;;;;;4892560;29;20101;-64
2022/10/17 02:43:44;;;;;;;10.13;4.20;;;;;;;;;;4891830;29;20045;-64
2022/10/17 02:46:20;;;;;;;9.18;4.80;;;;;;;;;;4892335;29;20057;-64
2022/10/17 02:48:55;;;;;;;9.07;4.28;;;;;;;;;;4892486;29;20049;-64
2022/10/17 02:51:27;;;;;;;11.88;4.68;;;;;;;;;;4878087;29;20112;-64
2022/10/17 02:54:11;;;;;;;7.18;4.63;;;;;;;;;;4891785;29;20056;-64
2022/10/17 02:56:45;;;;;;;8.95;4.53;;;;;;;;;;4876771;29;20053;-63
2022/10/17 02:59:13;;;;;;;8.85;4.00;;;;;;;;;;4878084;29;20048;-63
2022/10/17 03:01:40;;;;;;;6.90;3.63;;;;;;;;;;4891980;29;20053;-63
2022/10/17 03:04:11;;;;;;;10.13;4.28;;;;;;;;;;4891849;29;20127;-64
2022/10/17 03:06:38;;;;;;;8.82;4.15;;;;;;;;;;4878242;29;20053;-64
2022/10/17 03:09:06;;;;;;;10.70;4.70;;;;;;;;;;4892440;29;20057;-64
2022/10/17 03:11:33;;;;;;;8.90;4.88;;;;;;;;;;4877801;29;20061;-63
2022/10/17 03:14:00;;;;;;;12.82;4.35;;;;;;;;;;4891575;29;20051;-64
2022/10/17 03:16:26;;;;;;;7.43;3.95;;;;;;;;;;4892306;29;20093;-64
2022/10/17 03:18:54;;;;;;;7.68;3.83;;;;;;;;;;4907967;29;20049;-63
2022/10/17 03:21:21;;;;;;;9.88;4.38;;;;;;;;;;4877912;29;20051;-64
2022/10/17 03:23:47;;;;;;;7.78;4.45;;;;;;;;;;4879311;29;20045;-64
2022/10/17 03:26:15;;;;;;;8.07;4.70;;;;;;;;;;4895620;29;20049;-63
2022/10/17 03:28:41;;;;;;;8.88;4.65;;;;;;;;;;4881446;29;20044;-63
2022/10/17 03:31:10;;;;;;;7.18;4.85;;;;;;;;;;4895783;29;20049;-63
2022/10/17 03:33:37;;;;;;;8.90;4.50;;;;;;;;;;4880614;29;20041;-64
2022/10/17 03:36:04;;;;;;;7.10;4.40;;;;;;;;;;4881089;29;20045;-64
2022/10/17 03:38:31;;;;;;;8.75;4.40;;;;;;;;;;4895525;29;20041;-63
2022/10/17 03:40:57;;;;;;;7.63;4.25;;;;;;;;;;4895722;29;20464;-63
2022/10/17 03:43:24;;;;;;;7.53;4.53;;;;;;;;;;4879203;29;20049;-63
2022/10/17 03:45:51;;;;;;;10.43;4.70;;;;;;;;;;4881021;29;20049;-63
2022/10/17 03:48:18;;;;;;;7.20;4.75;;;;;;;;;;4895220;29;20068;-63
2022/10/17 03:50:44;;;;;;;9.15;4.40;;;;;;;;;;4880927;29;20052;-64
2022/10/17 03:53:12;;;;;;;8.55;3.47;;;;;;;;;;4894634;29;20077;-65
2022/10/17 03:55:38;;;;;;;5.30;4.18;;;;;;;;;;4895130;29;20128;-63
2022/10/17 03:58:04;;;;;;;8.00;4.18;;;;;;;;;;4879593;29;20041;-63
2022/10/17 04:03:27;;;;;;;6.53;4.03;;;;;;;;;;4981631;23;20415;-64
2022/10/17 04:05:56;;;;;;;5.82;4.45;;;;;;;;;;4937252;29;20044;-62
2022/10/17 04:08:23;;;;;;;6.43;4.45;;;;;;;;;;4937002;29;20039;-63
2022/10/17 04:11:05;;;;;;;8.23;4.18;;;;;;;;;;4935774;29;20154;-62
2022/10/17 04:13:32;;;;;;;10.07;4.82;;;;;;;;;;4934752;29;20044;-63
2022/10/17 04:16:01;;;;;;;10.07;5.20;;;;;;;;;;4935508;29;20064;-62
2022/10/17 04:18:27;;;;;;;11.35;4.90;;;;;;;;;;4919960;29;20043;-62
2022/10/17 04:20:54;;;;;;;9.50;5.00;;;;;;;;;;4936863;29;20048;-62
2022/10/17 04:23:21;;;;;;;10.52;4.57;;;;;;;;;;4935059;29;20071;-62
2022/10/17 04:25:56;;;;;;;12.55;5.60;;;;;;;;;;4935471;29;20571;-62
2022/10/17 04:28:24;;;;;;;11.35;5.47;;;;;;;;;;4935283;29;20047;-63
2022/10/17 04:30:54;;;;;;;10.57;5.00;;;;;;;;;;4935473;29;20115;-63
2022/10/17 04:33:21;;;;;;;11.55;5.15;;;;;;;;;;4933611;29;20054;-63
2022/10/17 04:35:58;;;;;;;10.98;5.72;;;;;;;;;;4935310;29;20393;-63
2022/10/17 04:38:25;;;;;;;11.30;4.82;;;;;;;;;;4935408;29;20047;-62
2022/10/17 04:41:02;;;;;;;11.05;5.45;;;;;;;;;;4935234;29;20054;-64
2022/10/17 04:43:29;;;;;;;10.02;5.32;;;;;;;;;;4934397;29;20465;-63
2022/10/17 04:45:56;;;;;;;12.65;4.65;;;;;;;;;;4935072;29;20103;-64
2022/10/17 04:48:22;;;;;;;13.85;6.80;;;;;;;;;;4936244;29;20063;-64
2022/10/17 04:50:56;;;;;;;7.45;5.10;;;;;;;;;;4919401;29;20451;-63
2022/10/17 04:53:41;;;;;;;9.23;4.53;;;;;;;;;;4934611;29;20054;-63
2022/10/17 04:56:12;;;;;;;13.73;5.10;;;;;;;;;;4935047;29;20047;-64
2022/10/17 04:58:39;;;;;;;10.07;4.78;;;;;;;;;;4919071;29;20099;-64
2022/10/17 05:01:07;;;;;;;9.52;4.57;;;;;;;;;;4936152;29;20031;-63
2022/10/17 05:03:35;;;;;;;7.82;5.40;;;;;;;;;;4934285;29;20048;-65
2022/10/17 05:06:05;;;;;;;9.23;5.28;;;;;;;;;;4935982;29;20411;-64
2022/10/17 05:08:32;;;;;;;13.25;5.00;;;;;;;;;;4935061;29;20044;-63
2022/10/17 05:10:58;;;;;;;8.10;5.63;;;;;;;;;;4919206;29;20518;-63
2022/10/17 05:13:30;;;;;;;17.05;5.95;;;;;;;;;;4934242;29;20483;-64
2022/10/17 05:16:00;;;;;;;7.72;5.00;;;;;;;;;;4938269;29;20048;-62
2022/10/17 05:18:27;;;;;;;6.57;5.10;;;;;;;;;;4921786;29;20055;-62
2022/10/17 05:20:54;;;;;;;10.48;5.55;;;;;;;;;;4937984;29;20040;-64
2022/10/17 05:23:20;;;;;;;12.95;5.45;;;;;;;;;;4937498;29;20102;-63
2022/10/17 05:25:53;;;;;;;13.55;5.50;;;;;;;;;;4939352;29;20039;-62
2022/10/17 05:28:20;;;;;;;9.63;5.32;;;;;;;;;;4938374;29;20051;-64
2022/10/17 05:30:46;;;;;;;10.38;5.55;;;;;;;;;;4938497;29;20102;-62
2022/10/17 05:33:14;;;;;;;11.45;5.95;;;;;;;;;;4937255;29;20067;-63
2022/10/17 05:35:41;;;;;;;9.50;5.70;;;;;;;;;;4938496;29;20051;-63
2022/10/17 05:38:07;;;;;;;9.23;6.30;;;;;;;;;;4921899;29;20497;-63
2022/10/17 05:40:35;;;;;;;7.68;5.88;;;;;;;;;;4937300;29;20047;-62
2022/10/17 05:43:01;;;;;;;10.27;6.32;;;;;;;;;;4935447;29;20043;-63
2022/10/17 05:45:29;;;;;;;12.65;6.18;;;;;;;;;;4935564;29;20054;-63
2022/10/17 05:47:55;;;;;;;12.32;4.97;;;;;;;;;;4936065;29;20039;-63
2022/10/17 05:50:24;;;;;;;10.52;6.43;;;;;;;;;;4935948;29;20051;-65
2022/10/17 05:53:01;;;;;;;12.07;6.13;;;;;;;;;;4936342;29;20047;-63
2022/10/17 05:55:27;;;;;;;12.40;6.07;;;;;;;;;;4934844;29;20127;-63
2022/10/17 05:57:54;;;;;;;16.52;10.57;;;;;;;;;;4934283;29;20135;-63
2022/10/17 06:00:22;;;;;;;15.77;8.93;;;;;;;;;;4934422;29;20139;-63
2022/10/17 06:02:55;;;;;;;9.23;6.22;;;;;;;;;;4918742;29;20103;-64
2022/10/17 06:05:22;;;;;;;14.23;7.70;;;;;;;;;;4933774;29;20048;-63
2022/10/17 06:07:51;;;;;;;11.40;5.72;;;;;;;;;;4933780;29;20106;-65
2022/10/17 06:10:18;;;;;;;15.43;6.32;;;;;;;;;;4933665;29;20048;-63
2022/10/17 06:12:45;;;;;;;9.38;6.47;;;;;;;;;;4932935;29;20103;-65
2022/10/17 06:15:12;;;;;;;9.73;5.50;;;;;;;;;;4934138;29;20098;-62
2022/10/17 06:17:42;;;;;;;10.88;6.18;;;;;;;;;;4933995;29;20051;-63
2022/10/17 06:20:09;;;;;;;11.55;6.72;;;;;;;;;;4934054;29;20044;-63
2022/10/17 06:22:36;;;;;;;10.90;6.82;;;;;;;;;;4917762;29;20047;-64
2022/10/17 06:25:10;;;;;;;16.55;7.35;;;;;;;;;;4918899;29;20500;-61
2022/10/17 06:27:36;;;;;;;14.48;7.53;;;;;;;;;;4935215;29;20048;-62
2022/10/17 06:30:06;;;;;;;10.32;6.45;;;;;;;;;;4933824;29;20138;-62
2022/10/17 06:32:33;;;;;;;13.02;7.03;;;;;;;;;;4932912;29;20048;-63
2022/10/17 06:34:59;;;;;;;13.77;7.85;;;;;;;;;;4918153;29;20055;-61
2022/10/17 06:37:29;;;;;;;15.32;7.68;;;;;;;;;;4933677;29;20048;-62
2022/10/17 06:40:03;;;;;;;16.25;7.40;;;;;;;;;;4933703;29;20071;-62
2022/10/17 06:42:30;;;;;;;10.63;6.78;;;;;;;;;;4932983;29;20047;-63
2022/10/17 06:45:25;;;;;;;12.25;6.68;;;;;;;;;;4926231;29;20059;-62
2022/10/17 06:48:05;;;;;;;11.70;6.28;;;;;;;;;;4934056;29;20047;-63
2022/10/17 06:51:06;;;;;;;13.77;7.10;;;;;;;;;;4923005;29;20444;-62
2022/10/17 06:53:42;;;;;;;14.05;6.07;;;;;;;;;;4933179;29;20055;-63
2022/10/17 06:56:26;;;;;;;13.30;7.97;;;;;;;;;;4935382;29;20397;-63
2022/10/17 06:59:20;;;;;;;13.93;6.72;;;;;;;;;;4937983;29;20051;-63
2022/10/17 07:02:13;;;;;;;16.33;7.05;;;;;;;;;;4935075;29;20122;-63
2022/10/17 07:04:40;;;;;;;14.88;7.53;;;;;;;;;;4937254;29;20051;-62
2022/10/17 07:07:06;;;;;;;13.40;7.30;;;;;;;;;;4938555;29;20048;-65
2022/10/17 07:09:33;;;;;;;15.30;6.22;;;;;;;;;;4937006;29;20052;-64
2022/10/17 07:12:00;;;;;;;12.30;6.43;;;;;;;;;;4937665;29;20484;-64
2022/10/17 07:14:30;;;;;;;13.57;7.15;;;;;;;;;;4939076;29;20460;-65
2022/10/17 07:16:58;;;;;;;9.73;5.72;;;;;;;;;;4938268;29;20047;-65
2022/10/17 07:19:27;;;;;;;12.73;5.90;;;;;;;;;;4938092;29;20135;-65
2022/10/17 07:21:54;;;;;;;12.43;5.90;;;;;;;;;;4938246;29;20504;-66
2022/10/17 07:24:21;;;;;;;13.45;6.32;;;;;;;;;;4937374;29;20047;-65
2022/10/17 07:26:53;;;;;;;15.13;6.45;;;;;;;;;;4923325;29;20114;-65
2022/10/17 07:29:20;;;;;;;15.02;6.07;;;;;;;;;;4938316;29;20051;-65
2022/10/17 07:32:13;;;;;;;10.38;6.25;;;;;;;;;;4934645;29;20436;-65
2022/10/17 07:34:39;;;;;;;13.43;6.03;;;;;;;;;;4937097;29;20047;-65
2022/10/17 07:37:08;;;;;;;12.52;6.38;;;;;;;;;;4937135;29;20524;-65
2022/10/17 07:39:38;;;;;;;13.18;7.25;;;;;;;;;;4921780;29;20043;-63
2022/10/17 07:42:09;;;;;;;16.25;7.80;;;;;;;;;;4935710;29;20066;-64
2022/10/17 07:44:35;;;;;;;11.93;7.95;;;;;;;;;;4936599;29;20139;-64
2022/10/17 07:47:04;;;;;;;15.57;8.02;;;;;;;;;;4921389;29;20147;-66
2022/10/17 07:49:31;;;;;;;17.63;9.18;;;;;;;;;;4936682;29;20586;-65
2022/10/17 07:51:57;;;;;;;14.20;8.85;;;;;;;;;;4937334;29;20052;-65
2022/10/17 07:54:26;;;;;;;15.07;8.50;;;;;;;;;;4937469;29;20415;-65
2022/10/17 07:56:53;;;;;;;14.20;8.65;;;;;;;;;;4936134;29;20472;-65
2022/10/17 07:59:19;;;;;;;19.52;8.43;;;;;;;;;;4937570;29;20504;-65
2022/10/17 08:01:46;;;;;;;19.08;8.20;;;;;;;;;;4937114;29;20124;-64
2022/10/17 08:04:12;;;;;;;16.67;7.53;;;;;;;;;;4935579;29;20516;-65
2022/10/17 08:06:39;;;;;;;12.57;7.85;;;;;;;;;;4935978;29;20138;-65
2022/10/17 08:09:05;;;;;;;19.02;7.90;;;;;;;;;;4937286;29;20488;-65
2022/10/17 08:11:32;;;;;;;13.85;9.02;;;;;;;;;;4937553;29;20052;-65
2022/10/17 08:13:58;;;;;;;14.50;7.85;;;;;;;;;;4935721;29;20047;-64
2022/10/17 08:16:25;;;;;;;15.35;6.68;;;;;;;;;;4935905;29;20040;-65
2022/10/17 08:18:51;;;;;;;9.93;5.15;;;;;;;;;;4937449;29;20095;-65
2022/10/17 08:21:17;;;;;;;6.93;5.35;;;;;;;;;;4920539;29;20048;-65
2022/10/17 08:23:44;;;;;;;7.32;4.85;;;;;;;;;;4936263;29;20082;-65
2022/10/17 08:26:12;;;;;;;6.85;3.35;;;;;;;;;;4936824;29;20048;-65
2022/10/17 08:28:39;;;;;;;6.40;3.28;;;;;;;;;;4937945;29;20143;-65
2022/10/17 08:31:07;;;;;;;5.20;3.00;;;;;;;;;;4938002;29;20065;-64
2022/10/17 08:33:33;;;;;;;3.78;2.58;;;;;;;;;;4937006;29;20043;-65
2022/10/17 08:36:00;;;;;;;6.13;3.25;;;;;;;;;;4938196;29;20035;-65
2022/10/17 08:38:30;;;;;;;2.75;2.50;;;;;;;;;;4936398;29;20043;-65
2022/10/17 08:41:02;;;;;;;7.97;3.25;;;;;;;;;;4921703;29;20142;-66
2022/10/17 08:43:55;;;;;;;4.25;3.00;;;;;;;;;;4936725;29;20051;-65
2022/10/17 08:46:21;;;;;;;6.65;3.05;;;;;;;;;;4921103;29;20122;-64
2022/10/17 08:48:50;;;;;;;9.10;2.92;;;;;;;;;;4936241;29;20075;-65
2022/10/17 08:51:25;;;;;;;7.03;3.35;;;;;;;;;;4936289;29;20112;-65
2022/10/17 08:53:52;;;;;;;9.57;3.17;;;;;;;;;;4936045;29;20126;-65
2022/10/17 08:56:20;;;;;;;6.38;2.78;;;;;;;;;;4934838;29;20076;-64
2022/10/17 08:59:03;;;;;;;8.02;2.83;;;;;;;;;;4936249;29;20139;-63
2022/10/17 09:01:32;;;;;;;7.78;4.22;;;;;;;;;;4934765;29;20079;-64
2022/10/17 09:04:14;;;;;;;5.10;2.72;;;;;;;;;;4935730;29;20071;-64
2022/10/17 09:07:10;;;;;;;5.22;2.47;;;;;;;;;;4935013;29;20047;-64
2022/10/17 09:09:52;;;;;;;3.20;1.98;;;;;;;;;;4927484;29;20074;-64
2022/10/17 09:12:42;;;;;;;3.95;2.78;;;;;;;;;;4934736;29;20058;-63
2022/10/17 09:15:22;;;;;;;3.72;2.03;;;;;;;;;;4917628;29;20059;-64
2022/10/17 09:17:51;;;;;;;5.68;2.67;;;;;;;;;;4935801;29;20040;-64
2022/10/17 09:20:20;;;;;;;4.88;2.20;;;;;;;;;;4918451;29;20187;-63
2022/10/17 09:22:50;;;;;;;4.28;2.30;;;;;;;;;;4935206;29;20067;-63
2022/10/17 09:25:18;;;;;;;4.63;2.45;;;;;;;;;;4935708;29;20059;-63
2022/10/17 09:27:52;;;;;;;5.30;2.58;;;;;;;;;;4935725;29;20106;-63
2022/10/17 09:30:25;;;;;;;6.28;2.50;;;;;;;;;;4935632;29;20051;-63
2022/10/17 09:33:10;;;;;;;4.80;2.55;;;;;;;;;;4934147;29;20047;-64
2022/10/17 09:35:57;;;;;;;3.35;2.13;;;;;;;;;;4935531;29;20075;-65
2022/10/17 09:38:28;;;;;;;7.18;2.70;;;;;;;;;;4925160;29;20051;-62
2022/10/17 09:40:56;;;;;;;3.70;2.40;;;;;;;;;;4923727;29;20048;-64
2022/10/17 09:43:23;;;;;;;6.25;2.35;;;;;;;;;;4925756;29;20056;-65
2022/10/17 09:46:10;;;;;;;5.13;2.25;;;;;;;;;;4924961;29;20036;-65
2022/10/17 09:48:45;;;;;;;3.13;2.00;;;;;;;;;;4921256;29;20052;-65
2022/10/17 09:51:17;;;;;;;4.20;2.72;;;;;;;;;;4916120;29;20082;-65
2022/10/17 09:54:02;;;;;;;4.90;2.42;;;;;;;;;;4915726;29;20052;-64
2022/10/17 09:56:29;;;;;;;2.50;2.10;;;;;;;;;;4923704;29;20031;-65
2022/10/17 09:58:56;;;;;;;5.85;2.95;;;;;;;;;;4929854;29;20081;-64
2022/10/17 10:01:27;;;;;;;4.18;2.58;;;;;;;;;;4925842;29;20051;-63
2022/10/17 10:04:08;;;;;;;3.50;2.45;;;;;;;;;;4922065;29;20059;-63
2022/10/17 10:06:35;;;;;;;7.43;2.30;;;;;;;;;;4925288;29;20382;-63
2022/10/17 10:09:04;;;;;;;6.22;2.22;;;;;;;;;;4919388;29;20040;-63
2022/10/17 10:11:44;;;;;;;4.70;2.67;;;;;;;;;;4924097;29;20043;-63
2022/10/17 10:14:34;;;;;;;7.43;2.90;;;;;;;;;;4923221;29;20085;-64
2022/10/17 10:17:02;;;;;;;2.58;2.00;;;;;;;;;;4923650;29;20048;-63
2022/10/17 10:19:30;;;;;;;3.58;2.80;;;;;;;;;;4916033;29;20036;-63
2022/10/17 10:21:57;;;;;;;3.33;2.22;;;;;;;;;;4914550;29;20099;-64
2022/10/17 10:24:25;;;;;;;3.45;2.28;;;;;;;;;;4918862;29;20048;-65
2022/10/17 10:27:00;;;;;;;4.75;2.30;;;;;;;;;;4925927;29;20489;-65
2022/10/17 10:29:35;;;;;;;4.15;2.40;;;;;;;;;;4917655;29;20060;-65
2022/10/17 10:32:10;;;;;;;3.95;2.28;;;;;;;;;;4918364;29;20052;-64
2022/10/17 10:34:42;;;;;;;4.18;2.33;;;;;;;;;;4920108;29;20051;-64
2022/10/17 10:37:20;;;;;;;2.80;2.03;;;;;;;;;;4920072;29;20040;-65
2022/10/17 10:39:57;;;;;;;6.03;1.98;;;;;;;;;;4920218;29;20412;-64
2022/10/17 10:42:29;;;;;;;5.25;2.17;;;;;;;;;;4918118;29;20051;-65
2022/10/17 10:44:58;;;;;;;4.53;1.95;;;;;;;;;;4918611;29;20044;-65
2022/10/17 10:47:28;;;;;;;6.68;2.55;;;;;;;;;;4919823;29;20050;-65
2022/10/17 10:50:14;;;;;;;8.13;2.33;;;;;;;;;;4902952;29;20062;-64
2022/10/17 10:52:44;;;;;;;3.42;1.88;;;;;;;;;;4919113;29;20104;-64
2022/10/17 10:55:17;;;;;;;3.38;1.95;;;;;;;;;;4919737;29;20104;-66
2022/10/17 10:57:45;;;;;;;4.95;2.00;;;;;;;;;;4919745;29;20040;-66
2022/10/17 11:00:18;;;;;;;2.08;1.88;;;;;;;;;;4925488;29;20040;-64
2022/10/17 11:02:56;;;;;;;3.28;1.98;;;;;;;;;;4920306;29;20040;-63
2022/10/17 11:05:26;;;;;;;4.93;2.10;;;;;;;;;;4918471;29;20099;-63
2022/10/17 11:08:02;;;;;;;4.55;2.00;;;;;;;;;;4918173;29;20044;-64
2022/10/17 11:10:47;;;;;;;3.97;2.40;;;;;;;;;;4919460;29;20182;-64
2022/10/17 11:13:19;;;;;;;4.20;2.20;;;;;;;;;;4917365;29;20064;-65
2022/10/17 11:15:53;;;;;;;4.05;2.13;;;;;;;;;;4923227;29;20050;-65
2022/10/17 11:18:32;;;;;;;2.63;2.15;;;;;;;;;;4920459;29;20040;-64
2022/10/17 11:21:02;;;;;;;4.93;2.40;;;;;;;;;;4919066;29;20044;-64
2022/10/17 11:23:43;;;;;;;4.60;2.13;;;;;;;;;;4917011;29;20044;-64
2022/10/17 11:26:14;;;;;;;4.03;2.35;;;;;;;;;;4918830;29;20417;-64
2022/10/17 11:28:40;;;;;;;5.55;2.35;;;;;;;;;;4917651;29;20040;-64
2022/10/17 11:31:14;;;;;;;3.05;1.88;;;;;;;;;;4917771;29;20421;-64
2022/10/17 11:33:56;;;;;;;7.00;2.40;;;;;;;;;;4917140;29;20083;-63
2022/10/17 11:36:25;;;;;;;5.03;2.42;;;;;;;;;;4917782;29;20504;-64
2022/10/17 11:38:58;;;;;;;3.63;2.35;;;;;;;;;;4917774;29;20083;-64
2022/10/17 11:41:38;;;;;;;3.30;2.20;;;;;;;;;;4917992;29;20461;-63
2022/10/17 11:44:04;;;;;;;9.10;2.78;;;;;;;;;;4918043;29;20036;-64
2022/10/17 11:46:33;;;;;;;4.32;2.53;;;;;;;;;;4918703;29;20040;-63
2022/10/17 11:49:05;;;;;;;3.92;2.10;;;;;;;;;;4917256;29;20052;-64
2022/10/17 11:51:36;;;;;;;3.83;2.05;;;;;;;;;;4917392;29;20099;-64
2022/10/17 11:54:25;;;;;;;3.13;2.25;;;;;;;;;;4918298;29;20066;-64
2022/10/17 11:56:57;;;;;;;2.28;1.92;;;;;;;;;;4918665;29;20512;-64
2022/10/17 11:59:42;;;;;;;6.18;2.22;;;;;;;;;;4917234;29;20101;-64
2022/10/17 12:02:24;;;;;;;3.42;2.00;;;;;;;;;;4916625;29;20052;-64
2022/10/17 12:04:55;;;;;;;3.53;2.00;;;;;;;;;;4918290;29;20048;-64
2022/10/17 12:07:38;;;;;;;6.28;2.30;;;;;;;;;;4918270;29;20051;-63
2022/10/17 12:10:19;;;;;;;4.53;2.20;;;;;;;;;;4917431;29;20056;-63
2022/10/17 12:12:47;;;;;;;8.23;2.55;;;;;;;;;;4916446;29;20142;-64
2022/10/17 12:15:19;;;;;;;4.57;2.50;;;;;;;;;;4918157;29;20052;-64
2022/10/17 12:17:53;;;;;;;4.75;2.28;;;;;;;;;;4918176;29;20070;-64
2022/10/17 12:20:20;;;;;;;4.53;2.03;;;;;;;;;;4916727;29;20103;-65
2022/10/17 12:22:47;;;;;;;4.50;2.50;;;;;;;;;;4916065;29;20132;-65
2022/10/17 12:25:19;;;;;;;5.70;2.47;;;;;;;;;;4916293;29;20099;-63
2022/10/17 12:27:46;;;;;;;5.10;2.50;;;;;;;;;;4916718;29;20044;-63
2022/10/17 12:30:18;;;;;;;6.85;3.03;;;;;;;;;;4916640;29;20055;-64
2022/10/17 12:32:58;;;;;;;4.15;2.15;;;;;;;;;;4917395;29;20055;-64
2022/10/17 12:35:33;;;;;;;5.53;2.35;;;;;;;;;;4916620;29;20044;-64
2022/10/17 12:38:01;;;;;;;3.67;2.33;;;;;;;;;;4916151;29;20103;-64
2022/10/17 12:40:33;;;;;;;4.97;2.28;;;;;;;;;;4916566;29;20100;-64
2022/10/17 12:43:01;;;;;;;5.00;2.25;;;;;;;;;;4915848;29;20096;-64
2022/10/17 12:45:43;;;;;;;4.10;2.08;;;;;;;;;;4916222;29;20047;-64
2022/10/17 12:48:10;;;;;;;5.27;2.43;;;;;;;;;;4917308;29;20044;-65
2022/10/17 12:50:55;;;;;;;4.60;2.25;;;;;;;;;;4916086;29;20287;-64
2022/10/17 12:53:45;;;;;;;3.78;2.45;;;;;;;;;;4915574;29;20517;-64
2022/10/17 12:56:19;;;;;;;3.30;2.40;;;;;;;;;;4916155;29;20052;-65
2022/10/17 12:58:47;;;;;;;8.50;2.90;;;;;;;;;;4915775;29;20040;-63
2022/10/17 13:01:17;;;;;;;5.57;2.55;;;;;;;;;;4917259;29;20048;-64
2022/10/17 13:03:51;;;;;;;7.63;2.47;;;;;;;;;;4915779;29;20047;-65
2022/10/17 13:06:22;;;;;;;5.43;2.72;;;;;;;;;;4915945;29;20073;-65
2022/10/17 13:08:53;;;;;;;3.13;2.40;;;;;;;;;;4916174;29;20046;-65
2022/10/17 13:11:26;;;;;;;6.28;2.30;;;;;;;;;;4915671;29;20048;-64
2022/10/17 13:13:54;;;;;;;8.25;2.40;;;;;;;;;;4916320;29;20052;-65
2022/10/17 13:16:34;;;;;;;7.40;2.38;;;;;;;;;;4916992;29;20103;-65
2022/10/17 13:19:02;;;;;;;4.65;3.40;;;;;;;;;;4900103;29;20056;-64
2022/10/17 13:21:29;;;;;;;4.97;2.80;;;;;;;;;;4915929;29;20040;-66
2022/10/17 13:23:55;;;;;;;5.70;3.35;;;;;;;;;;4916516;29;20516;-66
2022/10/17 13:26:21;;;;;;;4.13;2.05;;;;;;;;;;4917077;29;20445;-66
2022/10/17 13:29:03;;;;;;;8.27;5.13;;;;;;;;;;4916899;29;20040;-67
2022/10/17 13:31:31;;;;;;;4.28;2.67;;;;;;;;;;4916949;29;20048;-66
2022/10/17 13:33:58;;;;;;;5.43;2.63;;;;;;;;;;4916090;29;20052;-65
2022/10/17 13:36:26;;;;;;;5.10;2.50;;;;;;;;;;4916578;29;20056;-65
2022/10/17 13:38:52;;;;;;;5.20;2.45;;;;;;;;;;4916821;29;20386;-66
2022/10/17 13:41:23;;;;;;;4.07;2.40;;;;;;;;;;4916488;29;20044;-66
2022/10/17 13:44:03;;;;;;;4.97;2.70;;;;;;;;;;4916322;29;20040;-65
2022/10/17 13:46:31;;;;;;;5.10;2.85;;;;;;;;;;4916414;29;20048;-65
2022/10/17 13:49:17;;;;;;;4.00;2.40;;;;;;;;;;4916590;29;20044;-66
2022/10/17 13:51:45;;;;;;;4.40;2.60;;;;;;;;;;4915187;29;20478;-65
2022/10/17 13:54:31;;;;;;;4.20;2.20;;;;;;;;;;4915782;29;20044;-66
2022/10/17 13:56:59;;;;;;;6.30;2.75;;;;;;;;;;4916316;29;20117;-66
2022/10/17 13:59:35;;;;;;;5.13;2.75;;;;;;;;;;4916199;29;20044;-66
2022/10/17 14:02:02;;;;;;;8.65;2.55;;;;;;;;;;4914625;29;20095;-66
2022/10/17 14:04:28;;;;;;;11.13;2.55;;;;;;;;;;4916043;29;20032;-67
2022/10/17 14:07:22;;;;;;;3.15;2.65;;;;;;;;;;4916198;29;20536;-66
2022/10/17 14:09:48;;;;;;;4.82;2.47;;;;;;;;;;4914857;29;20055;-66
2022/10/17 14:12:17;;;;;;;4.32;2.50;;;;;;;;;;4915648;29;20501;-66
2022/10/17 14:14:49;;;;;;;9.95;2.50;;;;;;;;;;4915997;29;20100;-64
2022/10/17 14:17:37;;;;;;;4.05;2.80;;;;;;;;;;4901698;29;20513;-65
2022/10/17 14:20:04;;;;;;;4.07;2.30;;;;;;;;;;4916042;29;20041;-66
2022/10/17 14:22:50;;;;;;;5.80;2.30;;;;;;;;;;4914196;29;20108;-66
2022/10/17 14:25:38;;;;;;;7.13;2.95;;;;;;;;;;4914965;29;20067;-66
2022/10/17 14:28:11;;;;;;;6.30;2.58;;;;;;;;;;4916383;29;20066;-66
2022/10/17 14:30:39;;;;;;;6.75;3.22;;;;;;;;;;4916080;29;20056;-66
2022/10/17 14:33:28;;;;;;;5.30;2.83;;;;;;;;;;4914676;29;20052;-66
2022/10/17 14:35:56;;;;;;;4.57;2.65;;;;;;;;;;4914693;29;20421;-66
2022/10/17 14:38:23;;;;;;;5.25;2.70;;;;;;;;;;4914406;29;20454;-66
2022/10/17 14:40:58;;;;;;;5.18;2.75;;;;;;;;;;4915921;29;20036;-66
2022/10/17 14:43:50;;;;;;;4.00;2.47;;;;;;;;;;4914406;29;20068;-66
2022/10/17 14:46:17;;;;;;;4.35;2.53;;;;;;;;;;4915829;29;20040;-67
2022/10/17 14:48:43;;;;;;;5.95;3.15;;;;;;;;;;4915766;29;20084;-66
2022/10/17 14:51:19;;;;;;;4.82;2.80;;;;;;;;;;4915826;29;20040;-65
2022/10/17 14:54:14;;;;;;;5.95;3.42;;;;;;;;;;4913876;29;20056;-65
2022/10/17 14:56:41;;;;;;;3.33;2.33;;;;;;;;;;4915878;29;20036;-65
2022/10/17 14:59:11;;;;;;;6.18;2.72;;;;;;;;;;4914231;29;20048;-65
2022/10/17 15:01:50;;;;;;;4.57;2.72;;;;;;;;;;4915438;29;20126;-65
2022/10/17 15:04:17;;;;;;;7.25;2.50;;;;;;;;;;4915365;29;20048;-65
2022/10/17 15:06:44;;;;;;;5.63;2.90;;;;;;;;;;4914504;29;20040;-65
2022/10/17 15:09:10;;;;;;;6.28;2.67;;;;;;;;;;4915861;29;20075;-65